Time;durP1;ratioP1;P1;durP2;ratioP2;P2;SDS_P1;SDS_P2;PMS_P1;PMS_P2;Temp;Humidity;BMP_temperature;BMP_pressure;BME280_temperature;BME280_humidity;BME280_pressure;Samples;Min_cycle;Max_cycle;Signal;HPM_P1;HPM_P2
2021/05/28 00:00:24;;;;;;;;;;;26.30;94.80;;;;;;5148161;27;19931;-45
2021/05/28 00:02:51;;;;;;;;;;;26.30;94.80;;;;;;5129964;27;19915;-47
2021/05/28 00:05:17;;;;;;;;;;;26.30;94.70;;;;;;5148147;27;20196;-46
2021/05/28 00:07:43;;;;;;;;;;;26.30;94.80;;;;;;5148062;27;19957;-53
2021/05/28 00:10:10;;;;;;;;;;;26.30;94.80;;;;;;5147965;27;19978;-46
2021/05/28 00:12:36;;;;;;;;;;;26.20;94.80;;;;;;5148313;27;19916;-51
2021/05/28 00:15:03;;;;;;;;;;;26.20;94.70;;;;;;5144412;27;20200;-54
2021/05/28 00:17:29;;;;;;;;;;;26.20;94.60;;;;;;5127239;27;19911;-46
2021/05/28 00:19:55;;;;;;;;;;;26.20;94.70;;;;;;5127085;28;19908;-49
2021/05/28 00:22:22;;;;;;;;;;;26.20;94.70;;;;;;5126835;28;19911;-45
2021/05/28 00:24:48;;;;;;;;;;;26.20;94.70;;;;;;5126738;28;19926;-49
2021/05/28 00:27:14;;;;;;;;;;;26.10;94.70;;;;;;5108842;28;19919;-49
2021/05/28 00:29:40;;;;;;;;;;;26.10;94.60;;;;;;5126471;28;19908;-52
2021/05/28 00:32:07;;;;;;;;;;;26.10;94.60;;;;;;5126715;28;19920;-48
2021/05/28 00:34:33;;;;;;;;;;;26.10;94.60;;;;;;5126299;28;19908;-51
2021/05/28 00:36:59;;;;;;;;;;;26.10;94.70;;;;;;5126646;28;19912;-53
2021/05/28 00:39:26;;;;;;;;;;;26.00;94.70;;;;;;5125214;27;20015;-48
2021/05/28 00:41:52;;;;;;;;;;;26.00;94.70;;;;;;5126335;28;19912;-52
2021/05/28 00:44:26;;;;;;;;;;;26.00;94.80;;;;;;5125402;28;19955;-48
2021/05/28 00:46:52;;;;;;;;;;;26.00;94.90;;;;;;5124718;28;19912;-48
2021/05/28 00:49:19;;;;;;;;;;;26.00;94.90;;;;;;5126349;28;19904;-53
2021/05/28 00:51:45;;;;;;;;;;;26.00;95.00;;;;;;5126651;28;19970;-48
2021/05/28 00:54:11;;;;;;;;;;;26.00;94.90;;;;;;5126488;28;19974;-45
2021/05/28 00:56:40;;;;;;;;;;;26.00;94.90;;;;;;5126566;28;19904;-50
2021/05/28 00:59:08;;;;;;;;;;;25.90;94.90;;;;;;5126017;28;20246;-44
2021/05/28 01:01:34;;;;;;;;;;;25.90;94.90;;;;;;5124963;27;19974;-45
2021/05/28 01:04:01;;;;;;;;;;;25.90;94.90;;;;;;5126198;28;19935;-51
2021/05/28 01:06:27;;;;;;;;;;;25.90;94.90;;;;;;5125634;28;19915;-51
2021/05/28 01:08:54;;;;;;;;;;;25.90;94.90;;;;;;5125941;28;19967;-42
2021/05/28 01:11:21;;;;;;;;;;;26.00;95.00;;;;;;5136993;27;19915;-51
2021/05/28 01:13:47;;;;;;;;;;;25.90;94.90;;;;;;5131419;27;19984;-49
2021/05/28 01:16:14;;;;;;;;;;;25.90;94.90;;;;;;5125687;28;20141;-50
2021/05/28 01:18:40;;;;;;;;;;;25.90;94.90;;;;;;5126510;28;19954;-48
2021/05/28 01:21:08;;;;;;;;;;;25.90;94.90;;;;;;5135041;27;19947;-49
2021/05/28 01:23:36;;;;;;;;;;;25.90;94.90;;;;;;5146887;27;19919;-54
2021/05/28 01:26:06;;;;;;;;;;;25.90;94.90;;;;;;5146236;27;20211;-52
2021/05/28 01:28:33;;;;;;;;;;;25.90;94.90;;;;;;5140453;27;20533;-49
2021/05/28 01:30:59;;;;;;;;;;;25.90;94.90;;;;;;5124958;28;19943;-51
2021/05/28 01:33:26;;;;;;;;;;;25.90;94.80;;;;;;5125232;28;19939;-43
2021/05/28 01:35:55;;;;;;;;;;;25.90;94.80;;;;;;5125493;28;19904;-51
2021/05/28 01:38:21;;;;;;;;;;;25.80;94.70;;;;;;5128732;27;19918;-45
2021/05/28 01:40:47;;;;;;;;;;;25.80;94.70;;;;;;5130590;27;19914;-50
2021/05/28 01:43:14;;;;;;;;;;;25.80;94.80;;;;;;5125107;28;19912;-49
2021/05/28 01:45:40;;;;;;;;;;;25.80;94.80;;;;;;5125004;28;19923;-53
2021/05/28 01:48:06;;;;;;;;;;;25.80;94.80;;;;;;5122522;28;19912;-50
2021/05/28 01:50:54;;;;;;;;;;;25.80;94.90;;;;;;5123454;27;19911;-52
2021/05/28 01:53:20;;;;;;;;;;;25.80;94.80;;;;;;5123195;28;20054;-49
2021/05/28 01:55:47;;;;;;;;;;;25.80;94.80;;;;;;5121860;28;19904;-55
2021/05/28 01:58:17;;;;;;;;;;;25.80;94.70;;;;;;5125109;28;19912;-49
2021/05/28 02:00:46;;;;;;;;;;;25.80;94.70;;;;;;5126424;27;19910;-51
2021/05/28 02:03:12;;;;;;;;;;;25.80;94.80;;;;;;5124662;28;19951;-51
2021/05/28 02:05:39;;;;;;;;;;;25.70;94.80;;;;;;5121371;28;19912;-50
2021/05/28 02:08:06;;;;;;;;;;;25.70;94.70;;;;;;5125166;28;19950;-49
2021/05/28 02:10:32;;;;;;;;;;;25.70;94.80;;;;;;5124753;28;19934;-45
2021/05/28 02:12:58;;;;;;;;;;;25.70;94.70;;;;;;5124357;28;19916;-52
2021/05/28 02:15:27;;;;;;;;;;;25.70;94.60;;;;;;5123457;28;19919;-51
2021/05/28 02:17:53;;;;;;;;;;;25.80;94.70;;;;;;5124359;28;19914;-51
2021/05/28 02:20:20;;;;;;;;;;;25.70;94.60;;;;;;5124911;28;19908;-52
2021/05/28 02:22:46;;;;;;;;;;;25.70;94.50;;;;;;5124529;28;19945;-48
2021/05/28 02:25:15;;;;;;;;;;;25.80;94.60;;;;;;5124724;28;19983;-54
2021/05/28 02:27:42;;;;;;;;;;;25.80;94.60;;;;;;5124508;28;20188;-52
2021/05/28 02:30:09;;;;;;;;;;;25.80;94.50;;;;;;5125548;28;20387;-50
2021/05/28 02:32:35;;;;;;;;;;;25.80;94.40;;;;;;5124144;28;19912;-50
2021/05/28 02:35:03;;;;;;;;;;;25.80;94.50;;;;;;5124277;28;20141;-53
2021/05/28 02:37:29;;;;;;;;;;;25.80;94.50;;;;;;5123518;28;19931;-53
2021/05/28 02:39:57;;;;;;;;;;;25.80;94.50;;;;;;5122983;28;20219;-52
2021/05/28 02:42:23;;;;;;;;;;;25.80;94.50;;;;;;5122976;28;19908;-49
2021/05/28 02:44:49;;;;;;;;;;;25.80;94.60;;;;;;5124286;28;19908;-47
2021/05/28 02:47:15;;;;;;;;;;;25.80;94.60;;;;;;5124045;28;19923;-49
2021/05/28 02:49:42;;;;;;;;;;;25.80;94.60;;;;;;5124194;28;19915;-50
2021/05/28 02:52:08;;;;;;;;;;;25.80;94.60;;;;;;5124249;28;19946;-51
2021/05/28 02:54:35;;;;;;;;;;;25.80;94.60;;;;;;5105014;28;19955;-51
2021/05/28 02:57:01;;;;;;;;;;;25.80;94.60;;;;;;5104109;28;20144;-50
2021/05/28 02:59:27;;;;;;;;;;;25.70;94.50;;;;;;5117152;28;19975;-51
2021/05/28 03:01:54;;;;;;;;;;;25.70;94.60;;;;;;5124706;28;20180;-53
2021/05/28 03:04:20;;;;;;;;;;;25.80;94.60;;;;;;5124413;28;20165;-51
2021/05/28 03:06:46;;;;;;;;;;;25.70;94.60;;;;;;5128791;28;19903;-53
2021/05/28 03:09:12;;;;;;;;;;;25.70;94.60;;;;;;5141779;27;19911;-53
2021/05/28 03:11:39;;;;;;;;;;;25.70;94.60;;;;;;5148875;27;19922;-52
2021/05/28 03:14:05;;;;;;;;;;;25.70;94.50;;;;;;5148844;27;19919;-48
2021/05/28 03:16:33;;;;;;;;;;;25.70;94.50;;;;;;5148981;27;20195;-52
2021/05/28 03:19:02;;;;;;;;;;;25.70;94.30;;;;;;5148688;27;19942;-52
2021/05/28 03:23:59;;;;;;;;;;;25.70;94.30;;;;;;5148440;27;19952;-49
2021/05/28 03:26:26;;;;;;;;;;;25.70;94.10;;;;;;5148443;27;19910;-51
2021/05/28 03:28:53;;;;;;;;;;;25.70;94.10;;;;;;5128156;28;19911;-48
2021/05/28 03:31:19;;;;;;;;;;;25.70;94.00;;;;;;5127877;28;20188;-52
2021/05/28 03:33:46;;;;;;;;;;;25.70;93.90;;;;;;5138058;27;19926;-55
2021/05/28 03:36:13;;;;;;;;;;;25.70;93.90;;;;;;5130247;27;19919;-55
2021/05/28 03:38:40;;;;;;;;;;;25.60;93.90;;;;;;5148839;27;19938;-47
2021/05/28 03:41:06;;;;;;;;;;;25.60;93.80;;;;;;5148424;27;19978;-50
2021/05/28 03:43:32;;;;;;;;;;;25.60;93.80;;;;;;5148742;27;19987;-46
2021/05/28 03:45:58;;;;;;;;;;;25.60;93.80;;;;;;5148360;27;19918;-50
2021/05/28 03:48:25;;;;;;;;;;;25.60;93.80;;;;;;5148515;27;19903;-49
2021/05/28 03:50:51;;;;;;;;;;;25.60;93.80;;;;;;5148111;27;19918;-45
2021/05/28 03:53:17;;;;;;;;;;;25.60;93.80;;;;;;5148455;27;20166;-44
2021/05/28 03:55:43;;;;;;;;;;;25.60;93.90;;;;;;5129877;27;19923;-50
2021/05/28 03:58:10;;;;;;;;;;;25.60;93.80;;;;;;5148251;27;19904;-51
2021/05/28 04:00:36;;;;;;;;;;;25.50;93.80;;;;;;5148194;27;20247;-48
2021/05/28 04:03:02;;;;;;;;;;;25.50;93.80;;;;;;5129430;27;20261;-55
2021/05/28 04:05:28;;;;;;;;;;;25.50;93.90;;;;;;5147906;27;19943;-46
2021/05/28 04:07:54;;;;;;;;;;;25.50;93.90;;;;;;5148020;27;19912;-44
2021/05/28 04:10:21;;;;;;;;;;;25.50;93.90;;;;;;5147724;27;19915;-53
2021/05/28 04:12:47;;;;;;;;;;;25.50;93.80;;;;;;5129367;27;19937;-48
2021/05/28 04:15:13;;;;;;;;;;;25.50;93.80;;;;;;5147770;27;19903;-44
2021/05/28 04:17:40;;;;;;;;;;;25.50;93.70;;;;;;5128735;27;19911;-49
2021/05/28 04:20:06;;;;;;;;;;;25.50;93.50;;;;;;5147614;27;19912;-48
2021/05/28 04:22:32;;;;;;;;;;;25.50;93.50;;;;;;5136059;27;20017;-48
2021/05/28 04:24:59;;;;;;;;;;;25.50;93.50;;;;;;5129220;27;19903;-51
2021/05/28 04:27:25;;;;;;;;;;;25.50;93.40;;;;;;5126302;28;19979;-51
2021/05/28 04:29:51;;;;;;;;;;;25.50;93.40;;;;;;5128515;27;19907;-49
2021/05/28 04:32:17;;;;;;;;;;;25.40;93.50;;;;;;5126561;28;19991;-49
2021/05/28 04:34:43;;;;;;;;;;;25.50;93.60;;;;;;5109463;28;19908;-47
2021/05/28 04:37:10;;;;;;;;;;;25.50;93.60;;;;;;5126116;28;20134;-52
2021/05/28 04:39:36;;;;;;;;;;;25.50;93.50;;;;;;5126145;28;20107;-51
2021/05/28 04:42:02;;;;;;;;;;;25.50;93.60;;;;;;5108435;28;20087;-45
2021/05/28 04:44:28;;;;;;;;;;;25.40;93.50;;;;;;5142288;27;19960;-51
2021/05/28 04:46:56;;;;;;;;;;;25.50;93.50;;;;;;5130703;27;19911;-50
2021/05/28 04:49:23;;;;;;;;;;;25.40;93.40;;;;;;5128608;27;19970;-50
2021/05/28 04:51:50;;;;;;;;;;;25.40;93.40;;;;;;5125822;28;19966;-47
2021/05/28 04:54:17;;;;;;;;;;;25.40;93.30;;;;;;5107885;28;19911;-51
2021/05/28 04:56:43;;;;;;;;;;;25.40;93.40;;;;;;5126463;28;20289;-49
2021/05/28 04:59:09;;;;;;;;;;;25.40;93.40;;;;;;5139042;27;19903;-49
2021/05/28 05:01:36;;;;;;;;;;;25.40;93.40;;;;;;5146823;27;20096;-45
2021/05/28 05:04:02;;;;;;;;;;;25.40;93.50;;;;;;5134487;27;19938;-49
2021/05/28 05:06:29;;;;;;;;;;;25.40;93.60;;;;;;5126184;28;20082;-47
2021/05/28 05:08:56;;;;;;;;;;;25.40;93.60;;;;;;5125916;28;19904;-45
2021/05/28 05:11:22;;;;;;;;;;;25.40;93.60;;;;;;5115155;28;19962;-49
2021/05/28 05:13:48;;;;;;;;;;;25.40;93.70;;;;;;5105691;28;20223;-51
2021/05/28 05:16:14;;;;;;;;;;;25.40;93.60;;;;;;5105715;28;19904;-50
2021/05/28 05:18:40;;;;;;;;;;;25.40;93.60;;;;;;5105731;28;19908;-51
2021/05/28 05:21:07;;;;;;;;;;;25.30;93.60;;;;;;5105483;28;19908;-52
2021/05/28 05:23:33;;;;;;;;;;;25.30;93.60;;;;;;5105850;28;19916;-47
2021/05/28 05:25:59;;;;;;;;;;;25.30;93.60;;;;;;5105569;28;19908;-47
2021/05/28 05:28:25;;;;;;;;;;;25.40;93.70;;;;;;5104918;28;19915;-50
2021/05/28 05:30:52;;;;;;;;;;;25.30;93.50;;;;;;5105635;28;19945;-49
2021/05/28 05:33:18;;;;;;;;;;;25.30;93.40;;;;;;5087180;28;19912;-48
2021/05/28 05:35:44;;;;;;;;;;;25.30;93.30;;;;;;5105388;28;19930;-49
2021/05/28 05:38:10;;;;;;;;;;;25.30;93.40;;;;;;5087164;28;19908;-51
2021/05/28 05:40:37;;;;;;;;;;;25.30;93.30;;;;;;5105400;28;19909;-54
2021/05/28 05:43:03;;;;;;;;;;;25.30;93.40;;;;;;5105445;28;19908;-51
2021/05/28 05:45:30;;;;;;;;;;;25.30;93.50;;;;;;5105168;28;20157;-49
2021/05/28 05:47:56;;;;;;;;;;;25.30;93.60;;;;;;5104892;28;19920;-51
2021/05/28 05:50:23;;;;;;;;;;;25.30;93.60;;;;;;5105177;28;19908;-50
2021/05/28 05:52:50;;;;;;;;;;;25.30;93.60;;;;;;5105062;28;19912;-48
2021/05/28 05:55:18;;;;;;;;;;;25.20;93.70;;;;;;5105086;28;19977;-51
2021/05/28 05:57:46;;;;;;;;;;;25.20;93.60;;;;;;5105108;28;19908;-49
2021/05/28 06:00:12;;;;;;;;;;;25.30;93.60;;;;;;5104996;28;19908;-57
2021/05/28 06:02:39;;;;;;;;;;;25.20;93.60;;;;;;5105192;28;20084;-50
2021/05/28 06:05:06;;;;;;;;;;;25.20;93.70;;;;;;5105091;28;19915;-52
2021/05/28 06:07:32;;;;;;;;;;;25.20;93.60;;;;;;5105010;28;19935;-49
2021/05/28 06:09:58;;;;;;;;;;;25.20;93.50;;;;;;5104618;28;19908;-52
2021/05/28 06:12:24;;;;;;;;;;;25.20;93.50;;;;;;5124251;28;19920;-53
2021/05/28 06:14:51;;;;;;;;;;;25.20;93.60;;;;;;5124860;28;19966;-59
2021/05/28 06:17:17;;;;;;;;;;;25.20;93.60;;;;;;5125425;28;19939;-50
2021/05/28 06:19:43;;;;;;;;;;;25.20;93.60;;;;;;5124877;28;19908;-45
2021/05/28 06:22:09;;;;;;;;;;;25.20;93.60;;;;;;5125247;28;19912;-53
2021/05/28 06:24:35;;;;;;;;;;;25.20;93.70;;;;;;5124705;28;19918;-53
2021/05/28 06:27:03;;;;;;;;;;;25.10;93.60;;;;;;5125021;28;19912;-53
2021/05/28 06:29:30;;;;;;;;;;;25.10;93.60;;;;;;5124947;28;20141;-52
2021/05/28 06:31:56;;;;;;;;;;;25.10;93.60;;;;;;5124910;28;20235;-52
2021/05/28 06:34:22;;;;;;;;;;;25.10;93.70;;;;;;5124702;28;20212;-52
2021/05/28 06:36:49;;;;;;;;;;;25.10;93.70;;;;;;5124968;28;19982;-49
2021/05/28 06:39:15;;;;;;;;;;;25.10;93.70;;;;;;5124620;28;19904;-50
2021/05/28 06:41:43;;;;;;;;;;;25.10;93.80;;;;;;5128865;28;19923;-53
2021/05/28 06:44:09;;;;;;;;;;;25.10;93.70;;;;;;5129081;28;19910;-50
2021/05/28 06:46:35;;;;;;;;;;;25.10;93.70;;;;;;5129016;28;19941;-53
2021/05/28 06:49:02;;;;;;;;;;;25.10;93.70;;;;;;5128908;28;19924;-51
2021/05/28 06:51:28;;;;;;;;;;;25.10;93.70;;;;;;5128746;28;19908;-50
2021/05/28 06:53:54;;;;;;;;;;;25.10;93.70;;;;;;5128784;28;19903;-53
2021/05/28 06:56:20;;;;;;;;;;;25.10;93.80;;;;;;5128960;28;19904;-51
2021/05/28 06:58:49;;;;;;;;;;;25.10;93.80;;;;;;5128952;28;20089;-49
2021/05/28 07:01:16;;;;;;;;;;;25.10;93.80;;;;;;5128746;28;19941;-51
2021/05/28 07:03:42;;;;;;;;;;;25.10;93.90;;;;;;5129193;28;19922;-53
2021/05/28 07:06:08;;;;;;;;;;;25.10;93.90;;;;;;5128762;28;19946;-50
2021/05/28 07:08:34;;;;;;;;;;;25.10;93.90;;;;;;5128761;28;19950;-50
2021/05/28 07:11:01;;;;;;;;;;;25.10;93.90;;;;;;5128226;28;19955;-44
2021/05/28 07:13:27;;;;;;;;;;;25.10;93.90;;;;;;5128768;28;19912;-51
2021/05/28 07:15:53;;;;;;;;;;;25.10;93.90;;;;;;5128364;28;19904;-49
2021/05/28 07:18:19;;;;;;;;;;;25.10;93.90;;;;;;5128394;28;20241;-51
2021/05/28 07:20:46;;;;;;;;;;;25.10;93.90;;;;;;5128559;28;19903;-51
2021/05/28 07:23:12;;;;;;;;;;;25.10;93.90;;;;;;5128660;28;19916;-51
2021/05/28 07:25:38;;;;;;;;;;;25.00;93.90;;;;;;5128287;28;19912;-51
2021/05/28 07:28:05;;;;;;;;;;;25.00;94.00;;;;;;5128468;27;19923;-50
2021/05/28 07:30:31;;;;;;;;;;;25.00;93.90;;;;;;5128233;28;19926;-53
2021/05/28 07:32:57;;;;;;;;;;;25.00;93.90;;;;;;5128243;28;19961;-50
2021/05/28 07:35:23;;;;;;;;;;;25.00;93.90;;;;;;5128310;28;19904;-51
2021/05/28 07:37:49;;;;;;;;;;;25.00;94.00;;;;;;5128275;28;19919;-47
2021/05/28 07:40:15;;;;;;;;;;;25.00;93.90;;;;;;5127832;28;19911;-49
2021/05/28 07:42:42;;;;;;;;;;;24.90;93.90;;;;;;5128369;28;19978;-50
2021/05/28 07:45:08;;;;;;;;;;;25.00;94.00;;;;;;5128117;28;19944;-54
2021/05/28 07:47:35;;;;;;;;;;;24.90;94.00;;;;;;5128141;28;19933;-52
2021/05/28 07:50:04;;;;;;;;;;;24.90;94.00;;;;;;5128041;28;19904;-52
2021/05/28 07:52:31;;;;;;;;;;;24.90;94.10;;;;;;5126842;28;19916;-51
2021/05/28 07:54:57;;;;;;;;;;;24.90;94.00;;;;;;5127534;28;19976;-51
2021/05/28 07:57:23;;;;;;;;;;;24.90;94.00;;;;;;5128036;28;19915;-50
2021/05/28 07:59:49;;;;;;;;;;;24.90;94.00;;;;;;5127488;28;19935;-50
2021/05/28 08:02:18;;;;;;;;;;;24.90;94.00;;;;;;5127799;28;19912;-46
2021/05/28 08:04:45;;;;;;;;;;;24.90;94.00;;;;;;5129644;27;20360;-52
2021/05/28 08:07:11;;;;;;;;;;;24.90;94.00;;;;;;5148711;27;19978;-54
2021/05/28 08:09:38;;;;;;;;;;;24.90;93.90;;;;;;5148757;27;19910;-50
2021/05/28 08:12:04;;;;;;;;;;;24.90;94.00;;;;;;5148281;27;19926;-50
2021/05/28 08:14:30;;;;;;;;;;;24.90;94.00;;;;;;5148080;27;19911;-50
2021/05/28 08:16:56;;;;;;;;;;;24.90;94.00;;;;;;5147685;27;19911;-51
2021/05/28 08:19:23;;;;;;;;;;;24.90;94.00;;;;;;5147914;27;19903;-51
2021/05/28 08:21:49;;;;;;;;;;;24.90;94.00;;;;;;5147814;27;19917;-53
2021/05/28 08:24:16;;;;;;;;;;;24.90;94.10;;;;;;5147606;27;19910;-56
2021/05/28 08:26:42;;;;;;;;;;;24.90;94.20;;;;;;5147890;27;19951;-52
2021/05/28 08:29:08;;;;;;;;;;;24.90;94.10;;;;;;5147753;27;19911;-51
2021/05/28 08:31:35;;;;;;;;;;;24.90;94.00;;;;;;5147703;27;19961;-53
2021/05/28 08:34:02;;;;;;;;;;;24.90;94.10;;;;;;5146857;27;19942;-50
2021/05/28 08:36:28;;;;;;;;;;;24.90;94.10;;;;;;5147360;27;19942;-50
2021/05/28 08:38:54;;;;;;;;;;;24.90;94.10;;;;;;5147919;27;19999;-53
2021/05/28 08:41:22;;;;;;;;;;;24.90;94.00;;;;;;5147486;27;19974;-57
2021/05/28 08:43:48;;;;;;;;;;;24.90;94.00;;;;;;5147525;27;19978;-51
2021/05/28 08:46:15;;;;;;;;;;;24.90;94.10;;;;;;5147784;27;19903;-51
2021/05/28 08:48:41;;;;;;;;;;;24.90;94.10;;;;;;5147970;27;19939;-58
2021/05/28 08:51:07;;;;;;;;;;;24.90;94.10;;;;;;5147237;27;19903;-49
2021/05/28 08:53:33;;;;;;;;;;;24.90;94.10;;;;;;5147549;27;19911;-52
2021/05/28 08:56:00;;;;;;;;;;;24.90;94.10;;;;;;5147213;27;19914;-51
2021/05/28 08:58:28;;;;;;;;;;;24.90;94.00;;;;;;5147726;27;19933;-52
2021/05/28 09:00:54;;;;;;;;;;;24.90;94.00;;;;;;5147102;27;19971;-50
2021/05/28 09:03:25;;;;;;;;;;;24.90;94.00;;;;;;5146787;27;19945;-50
2021/05/28 09:05:52;;;;;;;;;;;24.90;94.10;;;;;;5147334;27;19915;-50
2021/05/28 09:08:25;;;;;;;;;;;24.90;94.10;;;;;;5147358;27;19907;-54
2021/05/28 09:10:53;;;;;;;;;;;24.90;94.10;;;;;;5146979;27;20137;-51
2021/05/28 09:13:26;;;;;;;;;;;24.90;94.00;;;;;;5147364;27;19923;-51
2021/05/28 09:16:12;;;;;;;;;;;24.90;94.00;;;;;;5146806;27;19907;-50
2021/05/28 09:18:42;;;;;;;;;;;24.90;94.00;;;;;;5147531;27;20017;-50
2021/05/28 09:21:09;;;;;;;;;;;24.90;94.00;;;;;;5146709;27;19910;-50
2021/05/28 09:23:36;;;;;;;;;;;24.90;94.00;;;;;;5147416;27;19915;-50
2021/05/28 09:26:04;;;;;;;;;;;24.90;94.00;;;;;;5147212;27;20096;-54
2021/05/28 09:28:36;;;;;;;;;;;24.90;94.10;;;;;;5147155;27;19949;-59
2021/05/28 09:31:03;;;;;;;;;;;24.90;94.00;;;;;;5146457;27;19903;-59
2021/05/28 09:33:33;;;;;;;;;;;24.80;94.00;;;;;;5147038;27;20200;-59
2021/05/28 09:36:09;;;;;;;;;;;24.90;94.00;;;;;;5146887;27;19925;-58
2021/05/28 09:38:36;;;;;;;;;;;24.90;94.10;;;;;;5147005;27;19933;-51
2021/05/28 09:41:02;;;;;;;;;;;24.80;94.10;;;;;;5146543;27;19952;-54
2021/05/28 09:43:29;;;;;;;;;;;24.80;94.00;;;;;;5146637;27;19919;-55
2021/05/28 09:45:55;;;;;;;;;;;24.80;94.00;;;;;;5146096;27;19910;-51
2021/05/28 09:48:28;;;;;;;;;;;24.80;94.10;;;;;;5146054;27;19912;-50
2021/05/28 09:50:59;;;;;;;;;;;24.80;94.20;;;;;;5146334;27;19903;-50
2021/05/28 09:53:32;;;;;;;;;;;24.80;94.20;;;;;;5146540;27;19954;-51
2021/05/28 09:56:00;;;;;;;;;;;24.80;94.30;;;;;;5146396;27;19910;-51
2021/05/28 09:58:46;;;;;;;;;;;24.80;94.20;;;;;;5146373;27;19915;-50
2021/05/28 10:01:12;;;;;;;;;;;24.80;94.20;;;;;;5145838;27;19903;-50
2021/05/28 10:03:38;;;;;;;;;;;24.80;94.20;;;;;;5146918;27;20007;-50
2021/05/28 10:06:05;;;;;;;;;;;24.80;94.20;;;;;;5145678;27;19903;-50
2021/05/28 10:08:31;;;;;;;;;;;24.80;94.20;;;;;;5146064;27;19912;-49
2021/05/28 10:10:58;;;;;;;;;;;24.90;94.30;;;;;;5145794;27;19922;-51
2021/05/28 10:13:25;;;;;;;;;;;24.90;94.30;;;;;;5146338;27;19915;-53
2021/05/28 10:15:53;;;;;;;;;;;24.90;94.30;;;;;;5145153;27;19911;-51
2021/05/28 10:18:20;;;;;;;;;;;24.80;94.30;;;;;;5146330;27;19916;-50
2021/05/28 10:20:49;;;;;;;;;;;24.80;94.30;;;;;;5145804;27;19903;-49
2021/05/28 10:23:16;;;;;;;;;;;24.80;94.20;;;;;;5146131;27;19911;-50
2021/05/28 10:25:44;;;;;;;;;;;24.80;94.30;;;;;;5145134;27;19903;-50
2021/05/28 10:28:20;;;;;;;;;;;24.90;94.30;;;;;;5145905;27;19957;-50
2021/05/28 10:30:48;;;;;;;;;;;24.80;94.20;;;;;;5145393;28;19967;-51
2021/05/28 10:33:24;;;;;;;;;;;24.90;94.30;;;;;;5146068;28;20214;-51
2021/05/28 10:36:11;;;;;;;;;;;24.80;94.30;;;;;;5145540;28;19903;-53
2021/05/28 10:38:40;;;;;;;;;;;24.80;94.40;;;;;;5145805;28;19986;-47
2021/05/28 10:41:06;;;;;;;;;;;24.80;94.40;;;;;;5145558;28;19903;-44
2021/05/28 10:43:34;;;;;;;;;;;24.80;94.40;;;;;;5132811;28;19919;-46
2021/05/28 10:46:06;;;;;;;;;;;24.80;94.40;;;;;;5124360;28;19904;-45
2021/05/28 10:48:43;;;;;;;;;;;24.80;94.40;;;;;;5120203;28;19911;-49
2021/05/28 10:51:09;;;;;;;;;;;24.80;94.40;;;;;;5121590;28;19954;-46
2021/05/28 10:53:36;;;;;;;;;;;24.80;94.40;;;;;;5122672;28;19919;-52
2021/05/28 10:56:06;;;;;;;;;;;24.80;94.70;;;;;;5122149;28;19914;-46
2021/05/28 10:58:50;;;;;;;;;;;24.80;94.50;;;;;;5123919;28;19912;-48
2021/05/28 11:04:02;;;;;;;;;;;24.80;94.50;;;;;;5124611;28;19943;-46
2021/05/28 11:06:29;;;;;;;;;;;24.80;94.50;;;;;;5124984;28;20187;-46
2021/05/28 11:09:04;;;;;;;;;;;24.80;94.50;;;;;;5124918;28;19908;-45
2021/05/28 11:11:36;;;;;;;;;;;24.80;94.50;;;;;;5124489;28;20021;-45
2021/05/28 11:14:06;;;;;;;;;;;24.80;94.70;;;;;;5124836;28;19920;-45
2021/05/28 11:16:51;;;;;;;;;;;24.90;94.50;;;;;;5124450;28;20135;-45
2021/05/28 11:19:30;;;;;;;;;;;24.90;94.60;;;;;;5124415;28;19920;-47
2021/05/28 11:21:58;;;;;;;;;;;24.90;94.70;;;;;;5124520;28;19910;-45
2021/05/28 11:24:43;;;;;;;;;;;24.90;94.60;;;;;;5124683;28;19912;-45
2021/05/28 11:27:12;;;;;;;;;;;24.90;94.60;;;;;;5127422;28;19926;-45
2021/05/28 11:29:38;;;;;;;;;;;24.90;94.50;;;;;;5128929;28;19919;-44
2021/05/28 11:32:23;;;;;;;;;;;24.90;94.50;;;;;;5127965;28;19966;-47
2021/05/28 11:35:07;;;;;;;;;;;24.90;94.40;;;;;;5128253;28;20203;-45
2021/05/28 11:37:41;;;;;;;;;;;24.90;94.40;;;;;;5128507;28;19910;-47
2021/05/28 11:40:13;;;;;;;;;;;24.90;94.40;;;;;;5127857;28;19912;-45
2021/05/28 11:42:41;;;;;;;;;;;24.90;94.40;;;;;;5128479;28;19903;-47
2021/05/28 11:45:08;;;;;;;;;;;24.90;94.40;;;;;;5127982;28;19911;-46
2021/05/28 11:47:37;;;;;;;;;;;24.90;94.30;;;;;;5128218;28;19904;-46
2021/05/28 11:50:07;;;;;;;;;;;24.90;94.30;;;;;;5128204;28;19919;-50
2021/05/28 11:52:33;;;;;;;;;;;25.00;94.40;;;;;;5127917;28;19908;-45
2021/05/28 11:55:10;;;;;;;;;;;25.00;94.50;;;;;;5128070;28;19915;-48
2021/05/28 11:57:36;;;;;;;;;;;24.90;94.40;;;;;;5128323;28;19949;-44
2021/05/28 12:00:07;;;;;;;;;;;25.00;94.40;;;;;;5127484;28;20219;-45
2021/05/28 12:02:36;;;;;;;;;;;25.00;94.40;;;;;;5127873;28;20252;-45
2021/05/28 12:46:28;;;;;;;;;;;24.80;94.90;;;;;;5142493;27;20029;-52
2021/05/28 12:48:58;;;;;;;;;;;25.20;94.50;;;;;;5142487;28;20088;-41
2021/05/28 12:51:28;;;;;;;;;;;25.20;94.50;;;;;;5142416;27;19903;-44
2021/05/28 12:53:55;;;;;;;;;;;25.30;94.50;;;;;;5142350;27;19935;-45
2021/05/28 12:56:22;;;;;;;;;;;25.30;94.50;;;;;;5142658;27;19907;-50
2021/05/28 12:58:50;;;;;;;;;;;25.30;94.30;;;;;;5142633;27;19949;-48
2021/05/28 13:01:17;;;;;;;;;;;25.30;94.30;;;;;;5142199;27;19935;-42
2021/05/28 13:03:49;;;;;;;;;;;25.40;94.30;;;;;;5142350;27;19904;-42
2021/05/28 13:06:34;;;;;;;;;;;25.40;94.40;;;;;;5142329;27;19939;-42
2021/05/28 13:09:03;;;;;;;;;;;25.40;94.40;;;;;;5142481;27;20087;-46
2021/05/28 13:17:57;;;;;;;;;;;25.40;94.40;;;;;;5142095;28;20214;-51
2021/05/28 13:20:27;;;;;;;;;;;25.40;94.40;;;;;;5141885;28;19915;-44
2021/05/28 13:22:54;;;;;;;;;;;25.50;94.50;;;;;;5142197;27;19908;-44
2021/05/28 13:31:26;;;;;;;;;;;25.50;94.80;;;;;;5141891;28;19918;-46
2021/05/28 13:33:53;;;;;;;;;;;25.50;94.90;;;;;;5141693;27;19907;-43
2021/05/28 13:36:21;;;;;;;;;;;25.50;95.00;;;;;;5141584;27;19911;-46
2021/05/28 13:38:55;;;;;;;;;;;25.50;94.90;;;;;;5141629;27;19908;-52
2021/05/28 13:41:29;;;;;;;;;;;25.50;94.90;;;;;;5141530;27;19949;-48
2021/05/28 13:43:55;;;;;;;;;;;25.50;94.90;;;;;;5141630;27;19942;-55
2021/05/28 13:46:23;;;;;;;;;;;25.60;95.00;;;;;;5133421;27;19922;-54
2021/05/28 13:48:50;;;;;;;;;;;25.60;94.90;;;;;;5127778;28;20162;-54
2021/05/28 13:51:16;;;;;;;;;;;25.60;94.90;;;;;;5127727;28;19992;-48
2021/05/28 13:53:42;;;;;;;;;;;25.60;95.00;;;;;;5127578;28;19904;-54
2021/05/28 13:56:11;;;;;;;;;;;25.70;94.90;;;;;;5127598;28;19912;-44
2021/05/28 13:58:37;;;;;;;;;;;25.70;94.80;;;;;;5127508;28;19903;-49
2021/05/28 14:01:04;;;;;;;;;;;25.80;94.80;;;;;;5127620;28;19903;-49
2021/05/28 14:03:31;;;;;;;;;;;25.80;94.70;;;;;;5127588;28;19912;-49
2021/05/28 14:05:57;;;;;;;;;;;25.80;94.70;;;;;;5126341;28;20247;-48
2021/05/28 14:08:23;;;;;;;;;;;25.90;94.70;;;;;;5127498;28;20076;-55
2021/05/28 14:10:52;;;;;;;;;;;25.90;94.50;;;;;;5127885;28;19943;-52
2021/05/28 14:13:19;;;;;;;;;;;25.90;94.40;;;;;;5127432;28;19935;-50
2021/05/28 14:15:45;;;;;;;;;;;26.00;94.40;;;;;;5127740;28;20106;-54
2021/05/28 14:18:12;;;;;;;;;;;26.00;94.30;;;;;;5127112;28;20210;-55
2021/05/28 14:20:40;;;;;;;;;;;26.00;94.30;;;;;;5127525;28;19950;-51
2021/05/28 14:23:06;;;;;;;;;;;26.00;94.10;;;;;;5127207;28;19975;-50
2021/05/28 14:25:34;;;;;;;;;;;26.00;94.00;;;;;;5127302;28;19912;-51
2021/05/28 14:28:07;;;;;;;;;;;26.00;93.60;;;;;;5127176;28;19908;-51
2021/05/28 14:30:41;;;;;;;;;;;26.10;93.30;;;;;;5127425;28;19916;-54
2021/05/28 14:33:13;;;;;;;;;;;26.10;93.40;;;;;;5126916;28;19979;-56
2021/05/28 14:35:39;;;;;;;;;;;26.10;93.40;;;;;;5127240;28;20207;-58
2021/05/28 14:38:06;;;;;;;;;;;26.10;93.40;;;;;;5126797;28;19904;-50
2021/05/28 14:40:44;;;;;;;;;;;26.10;93.50;;;;;;5127318;28;19943;-51
2021/05/28 14:43:14;;;;;;;;;;;26.10;93.40;;;;;;5125610;28;19939;-55
2021/05/28 14:45:43;;;;;;;;;;;26.10;93.50;;;;;;5126579;28;19961;-52
2021/05/28 14:48:10;;;;;;;;;;;26.10;93.50;;;;;;5126558;28;19903;-47
2021/05/28 14:50:40;;;;;;;;;;;26.10;93.50;;;;;;5126808;28;19911;-46
2021/05/28 14:53:10;;;;;;;;;;;26.20;93.40;;;;;;5125226;28;19908;-43
2021/05/28 14:55:36;;;;;;;;;;;26.20;93.20;;;;;;5126916;28;19992;-45
2021/05/28 14:58:02;;;;;;;;;;;26.20;93.20;;;;;;5125411;28;19904;-48
2021/05/28 15:00:29;;;;;;;;;;;26.20;92.60;;;;;;5126811;28;20125;-51
2021/05/28 15:02:55;;;;;;;;;;;26.20;92.80;;;;;;5126361;28;19904;-42
2021/05/28 15:05:54;;;;;;;;;;;26.20;92.60;;;;;;5126549;28;19911;-44
2021/05/28 15:08:21;;;;;;;;;;;26.20;92.60;;;;;;5126403;28;19944;-42
2021/05/28 15:10:47;;;;;;;;;;;26.20;92.60;;;;;;5126582;28;19965;-43
2021/05/28 15:13:14;;;;;;;;;;;26.20;92.90;;;;;;5125440;28;19911;-47
2021/05/28 15:15:40;;;;;;;;;;;26.20;93.00;;;;;;5104894;28;20148;-46
2021/05/28 15:18:08;;;;;;;;;;;26.20;93.00;;;;;;5104541;28;19967;-48